sensor_id;sensor_type;location;lat;lon;timestamp;P1;durP1;ratioP1;P2;durP2;ratioP2
76136;SDS011;68622;53.128;17.966;2023-09-19T00:00:20;24.00;;;17.90;;
76136;SDS011;68622;53.128;17.966;2023-09-19T00:03:08;21.20;;;16.00;;
76136;SDS011;68622;53.128;17.966;2023-09-19T00:05:36;22.90;;;16.10;;
76136;SDS011;68622;53.128;17.966;2023-09-19T00:08:10;24.00;;;15.90;;
76136;SDS011;68622;53.128;17.966;2023-09-19T00:10:39;21.80;;;15.90;;
76136;SDS011;68622;53.128;17.966;2023-09-19T00:13:08;25.50;;;15.80;;
76136;SDS011;68622;53.128;17.966;2023-09-19T00:15:40;23.40;;;16.20;;
76136;SDS011;68622;53.128;17.966;2023-09-19T00:18:08;21.80;;;15.80;;
76136;SDS011;68622;53.128;17.966;2023-09-19T00:20:35;24.60;;;15.20;;
76136;SDS011;68622;53.128;17.966;2023-09-19T00:23:03;22.00;;;15.70;;
76136;SDS011;68622;53.128;17.966;2023-09-19T00:25:30;21.70;;;14.60;;
76136;SDS011;68622;53.128;17.966;2023-09-19T00:28:01;22.60;;;13.60;;
76136;SDS011;68622;53.128;17.966;2023-09-19T00:30:28;20.70;;;13.10;;
76136;SDS011;68622;53.128;17.966;2023-09-19T00:32:55;16.60;;;12.10;;
76136;SDS011;68622;53.128;17.966;2023-09-19T00:35:22;16.50;;;10.90;;
76136;SDS011;68622;53.128;17.966;2023-09-19T00:37:51;18.90;;;10.40;;
76136;SDS011;68622;53.128;17.966;2023-09-19T00:40:19;15.60;;;9.30;;
76136;SDS011;68622;53.128;17.966;2023-09-19T00:42:48;13.70;;;8.60;;
76136;SDS011;68622;53.128;17.966;2023-09-19T00:45:16;18.10;;;8.50;;
76136;SDS011;68622;53.128;17.966;2023-09-19T00:47:45;12.70;;;8.20;;
76136;SDS011;68622;53.128;17.966;2023-09-19T00:50:16;12.90;;;8.00;;
76136;SDS011;68622;53.128;17.966;2023-09-19T00:52:49;15.00;;;8.10;;
76136;SDS011;68622;53.128;17.966;2023-09-19T00:55:19;13.30;;;7.30;;
76136;SDS011;68622;53.128;17.966;2023-09-19T00:57:46;14.40;;;8.30;;
76136;SDS011;68622;53.128;17.966;2023-09-19T01:00:13;11.90;;;6.80;;
76136;SDS011;68622;53.128;17.966;2023-09-19T01:02:42;12.20;;;7.10;;
76136;SDS011;68622;53.128;17.966;2023-09-19T01:05:10;14.10;;;6.60;;
76136;SDS011;68622;53.128;17.966;2023-09-19T01:07:39;11.30;;;6.60;;
76136;SDS011;68622;53.128;17.966;2023-09-19T01:10:08;12.30;;;5.90;;
76136;SDS011;68622;53.128;17.966;2023-09-19T01:15:21;9.30;;;5.60;;
76136;SDS011;68622;53.128;17.966;2023-09-19T01:18:03;10.00;;;5.60;;
76136;SDS011;68622;53.128;17.966;2023-09-19T01:23:14;11.80;;;5.30;;
76136;SDS011;68622;53.128;17.966;2023-09-19T01:28:43;11.30;;;5.10;;
76136;SDS011;68622;53.128;17.966;2023-09-19T01:31:31;9.90;;;4.90;;
76136;SDS011;68622;53.128;17.966;2023-09-19T01:34:02;9.90;;;4.80;;
76136;SDS011;68622;53.128;17.966;2023-09-19T01:36:37;9.60;;;4.80;;
76136;SDS011;68622;53.128;17.966;2023-09-19T01:39:05;10.10;;;4.50;;
76136;SDS011;68622;53.128;17.966;2023-09-19T01:44:06;9.70;;;4.10;;
76136;SDS011;68622;53.128;17.966;2023-09-19T01:46:40;10.10;;;4.50;;
76136;SDS011;68622;53.128;17.966;2023-09-19T01:52:13;8.70;;;4.90;;
76136;SDS011;68622;53.128;17.966;2023-09-19T01:54:50;9.00;;;4.50;;
76136;SDS011;68622;53.128;17.966;2023-09-19T01:57:22;12.70;;;4.40;;
76136;SDS011;68622;53.128;17.966;2023-09-19T01:59:54;9.80;;;4.30;;
76136;SDS011;68622;53.128;17.966;2023-09-19T02:02:44;9.60;;;4.40;;
76136;SDS011;68622;53.128;17.966;2023-09-19T02:05:21;9.60;;;4.40;;
76136;SDS011;68622;53.128;17.966;2023-09-19T02:07:52;9.00;;;4.60;;
76136;SDS011;68622;53.128;17.966;2023-09-19T02:10:25;9.20;;;4.50;;
76136;SDS011;68622;53.128;17.966;2023-09-19T02:12:51;9.80;;;4.40;;
76136;SDS011;68622;53.128;17.966;2023-09-19T02:15:18;8.50;;;4.60;;
76136;SDS011;68622;53.128;17.966;2023-09-19T02:17:44;11.70;;;5.30;;
76136;SDS011;68622;53.128;17.966;2023-09-19T02:20:12;9.60;;;4.80;;
76136;SDS011;68622;53.128;17.966;2023-09-19T02:22:41;11.80;;;4.70;;
76136;SDS011;68622;53.128;17.966;2023-09-19T02:25:08;10.70;;;4.70;;
76136;SDS011;68622;53.128;17.966;2023-09-19T02:27:36;10.10;;;5.10;;
76136;SDS011;68622;53.128;17.966;2023-09-19T02:30:04;9.80;;;5.10;;
76136;SDS011;68622;53.128;17.966;2023-09-19T02:32:32;10.40;;;5.80;;
76136;SDS011;68622;53.128;17.966;2023-09-19T02:35:02;10.80;;;5.10;;
76136;SDS011;68622;53.128;17.966;2023-09-19T02:37:31;10.70;;;6.10;;
76136;SDS011;68622;53.128;17.966;2023-09-19T02:39:59;13.30;;;6.50;;
76136;SDS011;68622;53.128;17.966;2023-09-19T02:42:26;12.30;;;6.80;;
76136;SDS011;68622;53.128;17.966;2023-09-19T02:44:52;14.30;;;7.90;;
76136;SDS011;68622;53.128;17.966;2023-09-19T02:47:19;15.10;;;7.80;;
76136;SDS011;68622;53.128;17.966;2023-09-19T02:49:45;12.90;;;7.20;;
76136;SDS011;68622;53.128;17.966;2023-09-19T02:52:12;16.00;;;7.50;;
76136;SDS011;68622;53.128;17.966;2023-09-19T02:54:40;16.20;;;6.60;;
76136;SDS011;68622;53.128;17.966;2023-09-19T02:57:08;18.60;;;9.80;;
76136;SDS011;68622;53.128;17.966;2023-09-19T02:59:34;13.60;;;6.50;;
76136;SDS011;68622;53.128;17.966;2023-09-19T03:02:03;12.30;;;6.00;;
76136;SDS011;68622;53.128;17.966;2023-09-19T03:04:31;16.30;;;7.50;;
76136;SDS011;68622;53.128;17.966;2023-09-19T03:06:59;11.20;;;6.10;;
76136;SDS011;68622;53.128;17.966;2023-09-19T03:09:27;13.40;;;6.40;;
76136;SDS011;68622;53.128;17.966;2023-09-19T03:11:54;10.40;;;6.20;;
76136;SDS011;68622;53.128;17.966;2023-09-19T03:14:21;10.10;;;5.60;;
76136;SDS011;68622;53.128;17.966;2023-09-19T03:16:49;9.80;;;5.00;;
76136;SDS011;68622;53.128;17.966;2023-09-19T03:19:18;10.80;;;5.20;;
76136;SDS011;68622;53.128;17.966;2023-09-19T03:21:47;10.00;;;5.20;;
76136;SDS011;68622;53.128;17.966;2023-09-19T03:24:16;13.70;;;5.00;;
76136;SDS011;68622;53.128;17.966;2023-09-19T03:26:42;12.80;;;5.10;;
76136;SDS011;68622;53.128;17.966;2023-09-19T03:29:09;10.00;;;4.20;;
76136;SDS011;68622;53.128;17.966;2023-09-19T03:31:36;10.30;;;4.90;;
76136;SDS011;68622;53.128;17.966;2023-09-19T03:34:03;10.80;;;4.60;;
76136;SDS011;68622;53.128;17.966;2023-09-19T03:36:30;12.00;;;5.40;;
76136;SDS011;68622;53.128;17.966;2023-09-19T03:38:57;10.40;;;5.00;;
76136;SDS011;68622;53.128;17.966;2023-09-19T03:41:24;10.20;;;5.00;;
76136;SDS011;68622;53.128;17.966;2023-09-19T03:43:51;10.10;;;4.60;;
76136;SDS011;68622;53.128;17.966;2023-09-19T03:46:21;10.60;;;5.00;;
76136;SDS011;68622;53.128;17.966;2023-09-19T03:48:48;9.60;;;4.40;;
76136;SDS011;68622;53.128;17.966;2023-09-19T03:51:16;13.40;;;5.00;;
76136;SDS011;68622;53.128;17.966;2023-09-19T03:53:43;8.40;;;4.10;;
76136;SDS011;68622;53.128;17.966;2023-09-19T03:56:09;9.50;;;4.70;;
76136;SDS011;68622;53.128;17.966;2023-09-19T03:58:37;12.80;;;4.70;;
76136;SDS011;68622;53.128;17.966;2023-09-19T04:01:06;11.50;;;4.90;;
76136;SDS011;68622;53.128;17.966;2023-09-19T04:03:33;11.60;;;4.90;;
76136;SDS011;68622;53.128;17.966;2023-09-19T04:06:14;9.80;;;4.90;;
76136;SDS011;68622;53.128;17.966;2023-09-19T04:08:41;10.10;;;4.30;;
76136;SDS011;68622;53.128;17.966;2023-09-19T04:11:08;9.00;;;4.80;;
76136;SDS011;68622;53.128;17.966;2023-09-19T04:13:35;10.70;;;4.90;;
76136;SDS011;68622;53.128;17.966;2023-09-19T04:16:02;9.80;;;4.70;;
76136;SDS011;68622;53.128;17.966;2023-09-19T04:18:35;12.00;;;4.80;;
76136;SDS011;68622;53.128;17.966;2023-09-19T04:21:05;13.90;;;5.10;;
76136;SDS011;68622;53.128;17.966;2023-09-19T04:23:32;10.20;;;4.80;;
76136;SDS011;68622;53.128;17.966;2023-09-19T04:25:59;9.60;;;4.70;;
76136;SDS011;68622;53.128;17.966;2023-09-19T04:28:26;7.80;;;3.80;;
76136;SDS011;68622;53.128;17.966;2023-09-19T04:30:54;10.10;;;4.40;;
76136;SDS011;68622;53.128;17.966;2023-09-19T04:33:21;10.90;;;6.50;;
76136;SDS011;68622;53.128;17.966;2023-09-19T04:35:49;8.70;;;4.60;;
76136;SDS011;68622;53.128;17.966;2023-09-19T04:38:19;9.20;;;3.80;;
76136;SDS011;68622;53.128;17.966;2023-09-19T04:40:46;9.80;;;4.80;;
76136;SDS011;68622;53.128;17.966;2023-09-19T04:43:13;11.60;;;3.80;;
76136;SDS011;68622;53.128;17.966;2023-09-19T04:45:41;9.30;;;4.20;;
76136;SDS011;68622;53.128;17.966;2023-09-19T04:48:08;9.50;;;3.80;;
76136;SDS011;68622;53.128;17.966;2023-09-19T04:50:35;8.50;;;3.90;;
76136;SDS011;68622;53.128;17.966;2023-09-19T04:53:01;9.50;;;5.40;;
76136;SDS011;68622;53.128;17.966;2023-09-19T04:55:29;8.30;;;3.80;;
76136;SDS011;68622;53.128;17.966;2023-09-19T04:57:56;9.80;;;4.30;;
76136;SDS011;68622;53.128;17.966;2023-09-19T05:00:23;9.10;;;4.20;;
76136;SDS011;68622;53.128;17.966;2023-09-19T05:02:51;10.40;;;4.20;;
76136;SDS011;68622;53.128;17.966;2023-09-19T05:05:18;7.20;;;3.50;;
76136;SDS011;68622;53.128;17.966;2023-09-19T05:07:45;8.40;;;3.70;;
76136;SDS011;68622;53.128;17.966;2023-09-19T05:10:13;9.50;;;3.90;;
76136;SDS011;68622;53.128;17.966;2023-09-19T05:12:41;12.40;;;5.60;;
76136;SDS011;68622;53.128;17.966;2023-09-19T05:15:08;12.40;;;4.40;;
76136;SDS011;68622;53.128;17.966;2023-09-19T05:17:35;10.40;;;3.80;;
76136;SDS011;68622;53.128;17.966;2023-09-19T05:20:02;9.40;;;3.80;;
76136;SDS011;68622;53.128;17.966;2023-09-19T05:22:57;8.70;;;4.20;;
76136;SDS011;68622;53.128;17.966;2023-09-19T05:25:39;10.00;;;3.90;;
76136;SDS011;68622;53.128;17.966;2023-09-19T05:28:06;9.80;;;4.00;;
76136;SDS011;68622;53.128;17.966;2023-09-19T05:30:34;8.30;;;3.40;;
76136;SDS011;68622;53.128;17.966;2023-09-19T05:33:03;9.90;;;3.80;;
76136;SDS011;68622;53.128;17.966;2023-09-19T05:35:30;9.20;;;4.00;;
76136;SDS011;68622;53.128;17.966;2023-09-19T05:37:58;11.20;;;4.10;;
76136;SDS011;68622;53.128;17.966;2023-09-19T05:40:24;10.30;;;4.10;;
76136;SDS011;68622;53.128;17.966;2023-09-19T05:42:52;9.70;;;3.90;;
76136;SDS011;68622;53.128;17.966;2023-09-19T05:45:19;7.10;;;3.40;;
76136;SDS011;68622;53.128;17.966;2023-09-19T05:47:49;11.80;;;4.80;;
76136;SDS011;68622;53.128;17.966;2023-09-19T05:50:17;9.30;;;3.40;;
76136;SDS011;68622;53.128;17.966;2023-09-19T05:52:51;9.30;;;5.00;;
76136;SDS011;68622;53.128;17.966;2023-09-19T05:55:19;10.00;;;3.40;;
76136;SDS011;68622;53.128;17.966;2023-09-19T05:57:53;8.40;;;3.80;;
76136;SDS011;68622;53.128;17.966;2023-09-19T06:00:20;9.00;;;4.20;;
76136;SDS011;68622;53.128;17.966;2023-09-19T06:02:50;8.30;;;3.80;;
76136;SDS011;68622;53.128;17.966;2023-09-19T06:05:19;8.80;;;4.30;;
76136;SDS011;68622;53.128;17.966;2023-09-19T06:07:46;8.90;;;4.60;;
76136;SDS011;68622;53.128;17.966;2023-09-19T06:10:13;8.90;;;4.90;;
76136;SDS011;68622;53.128;17.966;2023-09-19T06:12:43;8.10;;;4.50;;
76136;SDS011;68622;53.128;17.966;2023-09-19T06:15:11;9.30;;;4.80;;
76136;SDS011;68622;53.128;17.966;2023-09-19T06:17:49;11.60;;;5.10;;
76136;SDS011;68622;53.128;17.966;2023-09-19T06:20:17;8.40;;;4.40;;
76136;SDS011;68622;53.128;17.966;2023-09-19T06:22:45;7.50;;;3.60;;
76136;SDS011;68622;53.128;17.966;2023-09-19T06:25:13;10.40;;;4.70;;
76136;SDS011;68622;53.128;17.966;2023-09-19T06:27:50;10.30;;;4.90;;
76136;SDS011;68622;53.128;17.966;2023-09-19T06:30:23;11.00;;;5.00;;
76136;SDS011;68622;53.128;17.966;2023-09-19T06:32:57;10.80;;;5.30;;
76136;SDS011;68622;53.128;17.966;2023-09-19T06:35:24;9.70;;;4.10;;
76136;SDS011;68622;53.128;17.966;2023-09-19T06:37:54;9.50;;;4.50;;
76136;SDS011;68622;53.128;17.966;2023-09-19T06:40:24;9.40;;;4.80;;
76136;SDS011;68622;53.128;17.966;2023-09-19T06:42:51;11.40;;;4.70;;
76136;SDS011;68622;53.128;17.966;2023-09-19T06:45:22;13.00;;;5.60;;
76136;SDS011;68622;53.128;17.966;2023-09-19T06:47:50;9.80;;;4.90;;
76136;SDS011;68622;53.128;17.966;2023-09-19T06:50:18;10.70;;;5.50;;
76136;SDS011;68622;53.128;17.966;2023-09-19T06:52:46;12.10;;;5.80;;
76136;SDS011;68622;53.128;17.966;2023-09-19T06:55:16;8.90;;;5.20;;
76136;SDS011;68622;53.128;17.966;2023-09-19T06:57:46;9.40;;;4.70;;
76136;SDS011;68622;53.128;17.966;2023-09-19T07:00:14;12.10;;;6.00;;
76136;SDS011;68622;53.128;17.966;2023-09-19T07:02:45;11.60;;;5.40;;
76136;SDS011;68622;53.128;17.966;2023-09-19T07:05:21;9.80;;;5.30;;
76136;SDS011;68622;53.128;17.966;2023-09-19T07:07:48;10.90;;;5.20;;
76136;SDS011;68622;53.128;17.966;2023-09-19T07:10:15;11.20;;;5.60;;
76136;SDS011;68622;53.128;17.966;2023-09-19T07:12:42;8.90;;;5.60;;
76136;SDS011;68622;53.128;17.966;2023-09-19T07:15:09;12.10;;;5.10;;
76136;SDS011;68622;53.128;17.966;2023-09-19T07:17:36;10.60;;;5.50;;
76136;SDS011;68622;53.128;17.966;2023-09-19T07:20:03;10.00;;;5.00;;
76136;SDS011;68622;53.128;17.966;2023-09-19T07:22:34;9.40;;;5.40;;
76136;SDS011;68622;53.128;17.966;2023-09-19T07:25:01;11.00;;;5.20;;
76136;SDS011;68622;53.128;17.966;2023-09-19T07:27:29;7.90;;;4.50;;
76136;SDS011;68622;53.128;17.966;2023-09-19T07:29:55;12.00;;;5.40;;
76136;SDS011;68622;53.128;17.966;2023-09-19T07:32:22;7.70;;;4.80;;
76136;SDS011;68622;53.128;17.966;2023-09-19T07:34:49;10.00;;;5.10;;
76136;SDS011;68622;53.128;17.966;2023-09-19T07:37:16;16.90;;;5.60;;
76136;SDS011;68622;53.128;17.966;2023-09-19T07:39:43;10.00;;;5.20;;
76136;SDS011;68622;53.128;17.966;2023-09-19T07:42:11;11.90;;;5.70;;
76136;SDS011;68622;53.128;17.966;2023-09-19T07:44:44;12.10;;;4.80;;
76136;SDS011;68622;53.128;17.966;2023-09-19T07:47:13;7.90;;;4.90;;
76136;SDS011;68622;53.128;17.966;2023-09-19T07:49:40;11.00;;;6.50;;
76136;SDS011;68622;53.128;17.966;2023-09-19T07:52:08;11.30;;;6.60;;
76136;SDS011;68622;53.128;17.966;2023-09-19T07:54:36;11.00;;;5.60;;
76136;SDS011;68622;53.128;17.966;2023-09-19T07:57:05;10.20;;;5.70;;
76136;SDS011;68622;53.128;17.966;2023-09-19T07:59:31;12.50;;;5.60;;
76136;SDS011;68622;53.128;17.966;2023-09-19T08:01:58;14.50;;;5.50;;
76136;SDS011;68622;53.128;17.966;2023-09-19T08:04:25;9.50;;;4.90;;
76136;SDS011;68622;53.128;17.966;2023-09-19T08:06:52;10.40;;;5.00;;
76136;SDS011;68622;53.128;17.966;2023-09-19T08:09:18;8.60;;;4.40;;
76136;SDS011;68622;53.128;17.966;2023-09-19T08:11:47;8.80;;;4.50;;
76136;SDS011;68622;53.128;17.966;2023-09-19T08:14:14;11.30;;;6.50;;
76136;SDS011;68622;53.128;17.966;2023-09-19T08:16:40;11.00;;;5.10;;
76136;SDS011;68622;53.128;17.966;2023-09-19T08:19:09;10.40;;;5.40;;
76136;SDS011;68622;53.128;17.966;2023-09-19T08:21:36;10.80;;;4.60;;
76136;SDS011;68622;53.128;17.966;2023-09-19T08:24:03;8.30;;;4.50;;
76136;SDS011;68622;53.128;17.966;2023-09-19T08:26:30;11.60;;;3.90;;
76136;SDS011;68622;53.128;17.966;2023-09-19T08:28:57;9.40;;;5.90;;
76136;SDS011;68622;53.128;17.966;2023-09-19T08:31:24;9.00;;;4.80;;
76136;SDS011;68622;53.128;17.966;2023-09-19T08:33:52;11.60;;;5.60;;
76136;SDS011;68622;53.128;17.966;2023-09-19T08:36:19;9.20;;;4.20;;
76136;SDS011;68622;53.128;17.966;2023-09-19T08:38:46;9.30;;;4.70;;
76136;SDS011;68622;53.128;17.966;2023-09-19T08:41:13;10.70;;;4.30;;
76136;SDS011;68622;53.128;17.966;2023-09-19T08:43:39;12.50;;;4.50;;
76136;SDS011;68622;53.128;17.966;2023-09-19T08:46:15;15.50;;;5.20;;
76136;SDS011;68622;53.128;17.966;2023-09-19T08:48:46;8.80;;;4.50;;
76136;SDS011;68622;53.128;17.966;2023-09-19T08:51:27;11.40;;;4.90;;
76136;SDS011;68622;53.128;17.966;2023-09-19T08:56:40;10.60;;;4.70;;
76136;SDS011;68622;53.128;17.966;2023-09-19T08:59:09;10.50;;;4.90;;
76136;SDS011;68622;53.128;17.966;2023-09-19T09:01:39;8.50;;;4.00;;
76136;SDS011;68622;53.128;17.966;2023-09-19T09:04:08;7.60;;;3.80;;
76136;SDS011;68622;53.128;17.966;2023-09-19T09:06:39;7.60;;;3.60;;
76136;SDS011;68622;53.128;17.966;2023-09-19T09:09:09;6.30;;;3.00;;
76136;SDS011;68622;53.128;17.966;2023-09-19T09:11:37;7.10;;;2.70;;
76136;SDS011;68622;53.128;17.966;2023-09-19T09:14:09;6.70;;;2.50;;
76136;SDS011;68622;53.128;17.966;2023-09-19T09:16:36;6.40;;;2.50;;
76136;SDS011;68622;53.128;17.966;2023-09-19T09:19:03;7.70;;;2.30;;
76136;SDS011;68622;53.128;17.966;2023-09-19T09:21:31;6.70;;;2.30;;
76136;SDS011;68622;53.128;17.966;2023-09-19T09:27:00;7.10;;;2.80;;
76136;SDS011;68622;53.128;17.966;2023-09-19T09:29:39;9.00;;;3.00;;
76136;SDS011;68622;53.128;17.966;2023-09-19T09:32:21;8.30;;;2.50;;
76136;SDS011;68622;53.128;17.966;2023-09-19T09:34:50;6.10;;;2.60;;
76136;SDS011;68622;53.128;17.966;2023-09-19T09:37:18;7.00;;;2.80;;
76136;SDS011;68622;53.128;17.966;2023-09-19T09:39:50;6.30;;;2.90;;
76136;SDS011;68622;53.128;17.966;2023-09-19T09:42:29;7.80;;;2.20;;
76136;SDS011;68622;53.128;17.966;2023-09-19T09:45:35;5.60;;;2.20;;
76136;SDS011;68622;53.128;17.966;2023-09-19T09:48:03;6.40;;;2.10;;
76136;SDS011;68622;53.128;17.966;2023-09-19T09:50:46;9.40;;;3.00;;
76136;SDS011;68622;53.128;17.966;2023-09-19T09:53:23;6.10;;;2.00;;
76136;SDS011;68622;53.128;17.966;2023-09-19T09:56:03;8.50;;;2.20;;
76136;SDS011;68622;53.128;17.966;2023-09-19T09:58:34;6.90;;;2.20;;
76136;SDS011;68622;53.128;17.966;2023-09-19T10:01:02;7.50;;;2.30;;
76136;SDS011;68622;53.128;17.966;2023-09-19T10:03:36;6.80;;;2.30;;
76136;SDS011;68622;53.128;17.966;2023-09-19T10:06:08;11.80;;;2.40;;
76136;SDS011;68622;53.128;17.966;2023-09-19T10:09:06;4.80;;;1.90;;
76136;SDS011;68622;53.128;17.966;2023-09-19T10:11:41;6.80;;;1.90;;
76136;SDS011;68622;53.128;17.966;2023-09-19T10:14:13;5.40;;;2.00;;
76136;SDS011;68622;53.128;17.966;2023-09-19T10:16:46;6.30;;;2.20;;
76136;SDS011;68622;53.128;17.966;2023-09-19T10:19:30;5.70;;;2.20;;
76136;SDS011;68622;53.128;17.966;2023-09-19T10:22:04;5.10;;;2.00;;
76136;SDS011;68622;53.128;17.966;2023-09-19T10:24:35;6.00;;;1.50;;
76136;SDS011;68622;53.128;17.966;2023-09-19T10:27:04;6.80;;;1.80;;
76136;SDS011;68622;53.128;17.966;2023-09-19T10:29:35;11.80;;;2.50;;
76136;SDS011;68622;53.128;17.966;2023-09-19T10:32:05;7.00;;;1.90;;
76136;SDS011;68622;53.128;17.966;2023-09-19T10:34:35;4.20;;;1.60;;
76136;SDS011;68622;53.128;17.966;2023-09-19T10:37:03;7.80;;;1.90;;
76136;SDS011;68622;53.128;17.966;2023-09-19T10:39:32;5.50;;;2.10;;
76136;SDS011;68622;53.128;17.966;2023-09-19T10:42:01;5.60;;;2.00;;
76136;SDS011;68622;53.128;17.966;2023-09-19T10:44:32;5.80;;;1.70;;
76136;SDS011;68622;53.128;17.966;2023-09-19T10:46:59;6.10;;;1.60;;
76136;SDS011;68622;53.128;17.966;2023-09-19T10:49:26;7.70;;;3.50;;
76136;SDS011;68622;53.128;17.966;2023-09-19T10:51:54;6.20;;;2.00;;
76136;SDS011;68622;53.128;17.966;2023-09-19T10:54:27;6.90;;;2.10;;
76136;SDS011;68622;53.128;17.966;2023-09-19T10:56:58;6.30;;;2.00;;
76136;SDS011;68622;53.128;17.966;2023-09-19T10:59:26;5.80;;;1.60;;
76136;SDS011;68622;53.128;17.966;2023-09-19T11:02:15;5.90;;;1.60;;
76136;SDS011;68622;53.128;17.966;2023-09-19T11:04:43;5.10;;;1.40;;
76136;SDS011;68622;53.128;17.966;2023-09-19T11:07:14;6.00;;;1.90;;
76136;SDS011;68622;53.128;17.966;2023-09-19T11:09:51;5.50;;;1.90;;
76136;SDS011;68622;53.128;17.966;2023-09-19T11:21:38;9.30;;;2.70;;
76136;SDS011;68622;53.128;17.966;2023-09-19T11:26:44;6.50;;;1.90;;
76136;SDS011;68622;53.128;17.966;2023-09-19T11:29:24;6.90;;;1.90;;
76136;SDS011;68622;53.128;17.966;2023-09-19T11:31:51;7.30;;;1.90;;
76136;SDS011;68622;53.128;17.966;2023-09-19T11:34:37;5.50;;;1.90;;
76136;SDS011;68622;53.128;17.966;2023-09-19T11:39:46;4.60;;;1.60;;
76136;SDS011;68622;53.128;17.966;2023-09-19T11:42:48;6.80;;;2.00;;
76136;SDS011;68622;53.128;17.966;2023-09-19T11:48:06;5.00;;;1.50;;
76136;SDS011;68622;53.128;17.966;2023-09-19T11:50:34;8.90;;;2.20;;
76136;SDS011;68622;53.128;17.966;2023-09-19T11:53:04;5.00;;;1.60;;
76136;SDS011;68622;53.128;17.966;2023-09-19T11:55:32;7.90;;;2.30;;
76136;SDS011;68622;53.128;17.966;2023-09-19T11:58:00;4.70;;;1.50;;
76136;SDS011;68622;53.128;17.966;2023-09-19T12:00:27;6.30;;;1.80;;
76136;SDS011;68622;53.128;17.966;2023-09-19T12:02:55;6.20;;;1.50;;
76136;SDS011;68622;53.128;17.966;2023-09-19T12:05:30;6.50;;;1.60;;
76136;SDS011;68622;53.128;17.966;2023-09-19T12:07:59;5.60;;;1.20;;
76136;SDS011;68622;53.128;17.966;2023-09-19T12:10:27;5.20;;;1.30;;
76136;SDS011;68622;53.128;17.966;2023-09-19T12:12:54;7.40;;;1.80;;
76136;SDS011;68622;53.128;17.966;2023-09-19T12:15:23;6.20;;;1.30;;
76136;SDS011;68622;53.128;17.966;2023-09-19T12:17:54;6.90;;;1.70;;
76136;SDS011;68622;53.128;17.966;2023-09-19T12:20:21;7.50;;;1.80;;
76136;SDS011;68622;53.128;17.966;2023-09-19T12:22:48;5.10;;;1.60;;
76136;SDS011;68622;53.128;17.966;2023-09-19T12:25:16;6.20;;;2.00;;
76136;SDS011;68622;53.128;17.966;2023-09-19T12:27:45;6.70;;;1.90;;
76136;SDS011;68622;53.128;17.966;2023-09-19T12:30:13;6.50;;;1.30;;
76136;SDS011;68622;53.128;17.966;2023-09-19T12:32:44;4.60;;;1.40;;
76136;SDS011;68622;53.128;17.966;2023-09-19T12:35:26;4.90;;;1.40;;
76136;SDS011;68622;53.128;17.966;2023-09-19T12:37:55;6.00;;;1.80;;
76136;SDS011;68622;53.128;17.966;2023-09-19T12:40:21;6.30;;;2.10;;
76136;SDS011;68622;53.128;17.966;2023-09-19T12:42:53;5.50;;;1.50;;
76136;SDS011;68622;53.128;17.966;2023-09-19T12:45:31;4.60;;;1.30;;
76136;SDS011;68622;53.128;17.966;2023-09-19T12:56:17;6.40;;;2.40;;
76136;SDS011;68622;53.128;17.966;2023-09-19T12:58:48;5.50;;;1.70;;
76136;SDS011;68622;53.128;17.966;2023-09-19T13:01:15;6.20;;;1.60;;
76136;SDS011;68622;53.128;17.966;2023-09-19T13:03:43;8.40;;;2.70;;
76136;SDS011;68622;53.128;17.966;2023-09-19T13:06:09;6.60;;;1.90;;
76136;SDS011;68622;53.128;17.966;2023-09-19T13:08:37;5.20;;;1.50;;
76136;SDS011;68622;53.128;17.966;2023-09-19T13:11:11;7.10;;;1.50;;
76136;SDS011;68622;53.128;17.966;2023-09-19T13:13:40;5.30;;;1.80;;
76136;SDS011;68622;53.128;17.966;2023-09-19T13:16:12;7.30;;;2.10;;
76136;SDS011;68622;53.128;17.966;2023-09-19T13:18:49;5.40;;;2.00;;
76136;SDS011;68622;53.128;17.966;2023-09-19T13:21:30;7.30;;;2.10;;
76136;SDS011;68622;53.128;17.966;2023-09-19T13:24:45;8.00;;;1.90;;
76136;SDS011;68622;53.128;17.966;2023-09-19T13:27:06;5.90;;;1.80;;
76136;SDS011;68622;53.128;17.966;2023-09-19T13:29:34;5.60;;;2.10;;
76136;SDS011;68622;53.128;17.966;2023-09-19T13:32:01;6.30;;;1.90;;
76136;SDS011;68622;53.128;17.966;2023-09-19T13:34:28;7.00;;;2.20;;
76136;SDS011;68622;53.128;17.966;2023-09-19T13:36:55;6.70;;;2.00;;
76136;SDS011;68622;53.128;17.966;2023-09-19T13:39:22;6.80;;;2.30;;
76136;SDS011;68622;53.128;17.966;2023-09-19T13:41:51;7.30;;;2.10;;
76136;SDS011;68622;53.128;17.966;2023-09-19T13:44:17;7.60;;;2.20;;
76136;SDS011;68622;53.128;17.966;2023-09-19T13:46:44;5.90;;;2.10;;
76136;SDS011;68622;53.128;17.966;2023-09-19T13:49:13;6.10;;;2.10;;
76136;SDS011;68622;53.128;17.966;2023-09-19T13:51:40;6.60;;;2.10;;
76136;SDS011;68622;53.128;17.966;2023-09-19T13:54:10;5.20;;;2.10;;
76136;SDS011;68622;53.128;17.966;2023-09-19T13:56:38;7.80;;;1.90;;
76136;SDS011;68622;53.128;17.966;2023-09-19T13:59:05;7.30;;;2.20;;
76136;SDS011;68622;53.128;17.966;2023-09-19T14:01:32;8.00;;;2.40;;
76136;SDS011;68622;53.128;17.966;2023-09-19T14:03:58;7.00;;;2.30;;
76136;SDS011;68622;53.128;17.966;2023-09-19T14:06:25;4.70;;;1.50;;
76136;SDS011;68622;53.128;17.966;2023-09-19T14:08:52;8.10;;;2.30;;
76136;SDS011;68622;53.128;17.966;2023-09-19T14:11:18;9.70;;;2.90;;
76136;SDS011;68622;53.128;17.966;2023-09-19T14:13:45;8.30;;;2.70;;
76136;SDS011;68622;53.128;17.966;2023-09-19T14:16:16;6.80;;;2.30;;
76136;SDS011;68622;53.128;17.966;2023-09-19T14:18:44;5.70;;;2.10;;
76136;SDS011;68622;53.128;17.966;2023-09-19T14:21:12;8.00;;;2.20;;
76136;SDS011;68622;53.128;17.966;2023-09-19T14:23:41;7.90;;;2.00;;
76136;SDS011;68622;53.128;17.966;2023-09-19T14:26:09;5.80;;;2.10;;
76136;SDS011;68622;53.128;17.966;2023-09-19T14:28:36;7.90;;;2.50;;
76136;SDS011;68622;53.128;17.966;2023-09-19T14:31:07;5.70;;;2.30;;
76136;SDS011;68622;53.128;17.966;2023-09-19T14:33:35;9.60;;;2.40;;
76136;SDS011;68622;53.128;17.966;2023-09-19T14:36:03;7.40;;;2.40;;
76136;SDS011;68622;53.128;17.966;2023-09-19T14:38:35;9.40;;;3.80;;
76136;SDS011;68622;53.128;17.966;2023-09-19T14:41:03;7.10;;;2.40;;
76136;SDS011;68622;53.128;17.966;2023-09-19T14:43:31;9.40;;;2.90;;
76136;SDS011;68622;53.128;17.966;2023-09-19T14:46:08;8.00;;;2.40;;
76136;SDS011;68622;53.128;17.966;2023-09-19T14:48:36;5.90;;;2.30;;
76136;SDS011;68622;53.128;17.966;2023-09-19T14:51:03;7.20;;;2.60;;
76136;SDS011;68622;53.128;17.966;2023-09-19T14:53:31;6.40;;;2.10;;
76136;SDS011;68622;53.128;17.966;2023-09-19T14:56:02;6.90;;;2.50;;
76136;SDS011;68622;53.128;17.966;2023-09-19T14:58:32;6.20;;;2.80;;
76136;SDS011;68622;53.128;17.966;2023-09-19T15:01:05;5.80;;;2.10;;
76136;SDS011;68622;53.128;17.966;2023-09-19T15:03:33;5.60;;;2.10;;
76136;SDS011;68622;53.128;17.966;2023-09-19T15:06:03;6.10;;;2.20;;
76136;SDS011;68622;53.128;17.966;2023-09-19T15:08:35;7.90;;;2.60;;
76136;SDS011;68622;53.128;17.966;2023-09-19T15:11:04;7.50;;;2.40;;
76136;SDS011;68622;53.128;17.966;2023-09-19T15:13:32;6.60;;;2.10;;
76136;SDS011;68622;53.128;17.966;2023-09-19T15:16:02;6.10;;;2.60;;
76136;SDS011;68622;53.128;17.966;2023-09-19T15:18:30;8.30;;;2.40;;
76136;SDS011;68622;53.128;17.966;2023-09-19T15:21:00;6.90;;;2.70;;
76136;SDS011;68622;53.128;17.966;2023-09-19T15:23:27;9.00;;;2.50;;
76136;SDS011;68622;53.128;17.966;2023-09-19T15:25:56;6.20;;;2.20;;
76136;SDS011;68622;53.128;17.966;2023-09-19T15:28:23;7.50;;;2.30;;